Bickleton, Washington
Current Conditions -  °F | °C
As of 9:53 AM on Saturday 22 Nov 2014 (Local Time) from KYKM Reporting Station
Few Clouds Few Clouds  
Wind Chill: 40°   Ceiling: Unl
Heat Index: 40°   Visibility: 10mi
Dew Point: 36°   Wind: 0mph
Humidity: 86%   Direction: NA
Pressure: 29.72"   Gusts: NA
Location:  46°N, 120.3°W
Report Text: KYKM 221753Z 00000KT 10SM FEW070 04/02 A2972 RMK AO2 SLP071 I6003 T00440022 10044 21028 51019
Loading
Personal Weather Stations






























Interactive Weather Map New forecast layout! Learn more

10-Day Weather Forecast

Advertisements
Track Severe Weather on mobile